createdAt,value
2022-12-03T17:08:49.458Z,7.68
2022-12-03T17:13:13.735Z,7.55
2022-12-03T17:15:41.238Z,7.63
2022-12-03T17:18:09.936Z,8.05
2022-12-03T17:20:37.454Z,7.90
2022-12-03T17:23:04.969Z,7.75
2022-12-03T17:25:32.680Z,7.13
2022-12-03T17:28:00.385Z,6.82
2022-12-03T17:30:30.911Z,7.53
2022-12-03T17:32:58.393Z,7.22
2022-12-03T17:35:26.864Z,6.50
2022-12-03T17:37:54.033Z,7.13
2022-12-03T17:40:20.986Z,7.13
2022-12-03T17:42:48.201Z,7.03
2022-12-03T17:45:17.252Z,7.10
2022-12-03T17:47:44.927Z,6.22
2022-12-03T17:50:13.124Z,7.32
2022-12-03T17:52:40.124Z,7.35
2022-12-03T17:55:15.706Z,7.43
2022-12-03T17:57:48.609Z,7.13
2022-12-03T18:00:16.438Z,6.85
2022-12-03T18:02:43.525Z,7.00
2022-12-03T18:05:10.659Z,7.03
2022-12-03T18:07:39.105Z,7.10
2022-12-03T18:10:07.305Z,9.05
2022-12-03T18:12:34.326Z,8.15
2022-12-03T18:15:01.564Z,7.15
2022-12-03T18:17:28.787Z,7.22
2022-12-03T18:19:56.322Z,7.80
2022-12-03T18:22:28.061Z,8.05
2022-12-03T18:24:55.655Z,7.63
2022-12-03T18:27:23.835Z,7.43
2022-12-03T18:29:53.275Z,7.53
2022-12-03T18:32:28.671Z,7.70
2022-12-03T18:34:59.014Z,7.13
2022-12-03T18:37:30.501Z,7.45
2022-12-03T18:39:59.068Z,7.10
2022-12-03T18:44:56.211Z,6.28
2022-12-03T18:47:31.155Z,7.28
2022-12-03T18:49:58.586Z,6.82
2022-12-03T18:52:26.332Z,6.82
2022-12-03T18:54:54.895Z,6.72
2022-12-03T18:57:22.243Z,7.35
2022-12-03T18:59:49.630Z,6.78
2022-12-03T19:05:10.037Z,7.43
2022-12-03T19:07:39.143Z,6.88
2022-12-03T19:12:35.111Z,6.00
2022-12-03T19:15:03.831Z,6.57
2022-12-03T19:17:33.129Z,6.95
2022-12-03T19:20:00.772Z,6.90
2022-12-03T19:22:28.402Z,7.13
2022-12-03T19:24:59.043Z,7.07
2022-12-03T19:27:26.501Z,6.88
2022-12-03T19:29:54.301Z,6.70
2022-12-03T19:32:22.018Z,6.83
2022-12-03T19:34:49.647Z,7.05
2022-12-03T19:37:17.258Z,6.97
2022-12-03T19:41:08.183Z,6.20
2022-12-03T19:43:37.932Z,6.95
2022-12-03T19:46:08.331Z,7.13
2022-12-03T19:48:38.411Z,7.60
2022-12-03T19:51:33.118Z,6.75
2022-12-03T19:53:57.498Z,7.07
2022-12-03T19:56:25.479Z,7.07
2022-12-03T19:58:56.943Z,6.82
2022-12-03T20:01:27.216Z,6.38
2022-12-03T20:03:57.139Z,6.72
2022-12-03T20:06:28.233Z,7.35
2022-12-03T20:09:05.197Z,7.30
2022-12-03T20:11:34.236Z,7.68
2022-12-03T20:14:06.000Z,7.25
2022-12-03T20:16:34.709Z,7.10
2022-12-03T20:19:05.401Z,7.93
2022-12-03T20:21:35.486Z,8.30
2022-12-03T20:24:04.112Z,8.18
2022-12-03T20:26:33.493Z,7.65
2022-12-03T20:29:01.619Z,8.05
2022-12-03T20:31:31.464Z,7.20
2022-12-03T20:34:02.200Z,8.02
2022-12-03T20:36:32.438Z,7.30
2022-12-03T20:39:05.701Z,7.28
2022-12-03T20:41:36.629Z,6.97
2022-12-03T20:44:06.453Z,7.57
2022-12-03T20:46:34.351Z,7.55
2022-12-03T20:49:02.149Z,6.88
2022-12-03T20:51:30.703Z,7.13
2022-12-03T20:53:59.547Z,7.63
2022-12-03T20:58:56.219Z,6.95
2022-12-03T21:01:27.036Z,6.13
2022-12-03T21:03:56.601Z,7.22
2022-12-03T21:06:26.126Z,6.97
2022-12-03T21:08:55.065Z,6.55
2022-12-03T21:13:52.432Z,7.25
2022-12-03T21:16:46.026Z,7.30
2022-12-03T21:19:12.543Z,7.40
2022-12-03T21:21:42.729Z,6.90
2022-12-03T21:24:12.664Z,6.40
2022-12-03T21:26:39.808Z,6.45
2022-12-03T21:29:07.297Z,6.57
2022-12-03T21:31:35.784Z,6.55
2022-12-03T21:34:03.059Z,6.60
2022-12-03T21:36:29.981Z,6.75
2022-12-03T21:38:57.551Z,6.53
2022-12-03T21:41:24.676Z,6.22
2022-12-03T21:43:52.329Z,6.93
2022-12-03T21:47:10.255Z,6.78
2022-12-03T21:49:08.866Z,6.80
2022-12-03T21:51:35.910Z,6.25
2022-12-03T21:54:03.336Z,6.25
2022-12-03T21:56:32.227Z,6.10
2022-12-03T21:58:59.764Z,6.60
2022-12-03T22:01:27.342Z,6.35
2022-12-03T22:03:54.367Z,6.15
2022-12-03T22:06:22.481Z,6.18
2022-12-03T22:08:50.267Z,6.43
2022-12-03T22:11:22.630Z,6.80
2022-12-03T22:13:50.298Z,6.10
2022-12-03T22:16:22.074Z,6.20
2022-12-03T22:18:49.839Z,5.75
2022-12-03T22:21:20.141Z,5.60
2022-12-03T22:23:47.218Z,6.38
2022-12-03T22:26:17.294Z,5.55
2022-12-03T22:28:49.170Z,6.82
2022-12-03T22:31:17.275Z,6.22
2022-12-03T22:33:48.277Z,5.85
2022-12-03T22:36:21.021Z,6.18
2022-12-03T22:38:49.965Z,5.88
2022-12-03T22:41:17.861Z,5.50
2022-12-03T22:43:45.552Z,6.10
2022-12-03T22:46:12.978Z,6.00
2022-12-03T22:48:45.034Z,6.40
2022-12-03T22:51:23.753Z,5.82
2022-12-03T22:56:24.492Z,5.57
2022-12-03T22:58:51.866Z,5.78
2022-12-03T23:01:22.991Z,5.38
2022-12-03T23:03:50.370Z,5.20
2022-12-03T23:06:18.165Z,6.20
2022-12-03T23:08:45.443Z,6.35
2022-12-03T23:11:12.555Z,5.65
2022-12-03T23:13:40.025Z,5.57
2022-12-03T23:16:07.673Z,5.75
2022-12-03T23:18:34.791Z,6.18
2022-12-03T23:21:01.796Z,5.20
2022-12-03T23:23:28.707Z,5.40
2022-12-03T23:26:08.025Z,5.70
2022-12-03T23:28:37.228Z,5.82
2022-12-03T23:31:05.473Z,5.40
2022-12-03T23:33:37.979Z,5.70
2022-12-03T23:36:06.775Z,5.53
2022-12-03T23:38:33.863Z,6.13
2022-12-03T23:41:15.327Z,5.53
2022-12-03T23:43:42.663Z,5.28
2022-12-03T23:46:15.296Z,5.43
2022-12-03T23:48:43.013Z,5.13
2022-12-03T23:51:18.683Z,5.50
2022-12-03T23:53:46.118Z,5.32
2022-12-03T23:56:19.260Z,5.78
2022-12-03T23:58:47.149Z,5.20
